createdAt,value
2023-02-20T00:02:13.339Z,14.48
2023-02-20T00:04:55.487Z,14.07
2023-02-20T00:07:37.912Z,12.95
2023-02-20T00:10:20.354Z,14.43
2023-02-20T00:13:02.759Z,18.13
2023-02-20T00:15:45.025Z,13.52
2023-02-20T00:18:27.504Z,17.67
2023-02-20T00:21:10.131Z,19.02
2023-02-20T00:23:52.702Z,11.98
2023-02-20T00:26:35.075Z,11.93
2023-02-20T00:29:19.227Z,15.35
2023-02-20T00:32:03.058Z,15.18
2023-02-20T00:34:47.998Z,14.10
2023-02-20T00:37:30.237Z,16.60
2023-02-20T00:40:13.431Z,15.45
2023-02-20T00:42:55.638Z,12.40
2023-02-20T00:45:38.132Z,16.83
2023-02-20T00:48:20.500Z,15.05
2023-02-20T00:51:02.952Z,14.55
2023-02-20T00:53:45.190Z,14.77
2023-02-20T00:56:27.753Z,14.48
2023-02-20T00:59:12.180Z,12.00
2023-02-20T01:01:54.850Z,13.57
2023-02-20T01:04:37.199Z,15.35
2023-02-20T01:07:19.751Z,13.93
2023-02-20T01:10:02.114Z,15.55
2023-02-20T01:12:44.611Z,14.55
2023-02-20T01:15:29.039Z,14.45
2023-02-20T01:18:13.020Z,13.95
2023-02-20T01:20:55.286Z,12.95
2023-02-20T01:23:37.846Z,15.98
2023-02-20T01:26:20.107Z,12.95
2023-02-20T01:29:04.026Z,15.05
2023-02-20T01:31:53.027Z,16.90
2023-02-20T01:34:35.617Z,15.85
2023-02-20T01:37:18.252Z,18.48
2023-02-20T01:40:00.904Z,15.27
2023-02-20T01:42:43.660Z,17.23
2023-02-20T01:45:26.020Z,16.35
2023-02-20T01:48:28.862Z,17.30
2023-02-20T01:51:11.396Z,12.15
2023-02-20T01:53:53.718Z,17.00
2023-02-20T01:56:36.677Z,13.35
2023-02-20T01:59:22.087Z,13.65
2023-02-20T02:02:06.115Z,16.00
2023-02-20T02:04:49.403Z,11.50
2023-02-20T02:07:32.096Z,10.38
2023-02-20T02:10:24.826Z,13.13
2023-02-20T02:13:07.388Z,16.67
2023-02-20T02:16:01.277Z,16.13
2023-02-20T02:19:06.274Z,15.82
2023-02-20T02:22:25.434Z,11.50
2023-02-20T02:25:25.316Z,13.63
2023-02-20T02:28:32.478Z,13.70
2023-02-20T02:31:20.775Z,11.52
2023-02-20T02:34:40.782Z,11.57
2023-02-20T02:38:01.090Z,8.70
2023-02-20T02:41:03.616Z,13.63
2023-02-20T02:44:10.120Z,11.43
2023-02-20T02:47:03.664Z,9.77
2023-02-20T02:49:56.645Z,9.40
2023-02-20T02:52:49.639Z,9.15
2023-02-20T02:55:35.827Z,10.25
2023-02-20T02:58:18.826Z,8.52
2023-02-20T03:01:03.032Z,7.85
2023-02-20T03:03:46.774Z,10.35
2023-02-20T03:06:35.661Z,8.13
2023-02-20T03:09:25.747Z,5.93
2023-02-20T03:12:13.151Z,9.88
2023-02-20T03:15:37.567Z,8.40
2023-02-20T03:18:35.432Z,11.17
2023-02-20T03:21:22.224Z,9.77
2023-02-20T03:24:05.688Z,7.57
2023-02-20T03:26:49.313Z,8.50
2023-02-20T03:29:36.774Z,12.38
2023-02-20T03:32:38.911Z,7.03
2023-02-20T03:35:47.061Z,9.65
2023-02-20T03:38:50.332Z,7.03
2023-02-20T03:41:53.575Z,8.95
2023-02-20T03:44:36.934Z,5.88
2023-02-20T03:47:22.549Z,9.02
2023-02-20T03:50:25.894Z,8.40
2023-02-20T03:53:11.066Z,8.95
2023-02-20T03:55:56.919Z,6.63
2023-02-20T03:58:45.448Z,8.45
2023-02-20T04:01:29.048Z,12.25
2023-02-20T04:04:16.499Z,8.52
2023-02-20T04:07:01.694Z,7.50
2023-02-20T04:09:46.926Z,10.07
2023-02-20T04:12:36.564Z,9.10
2023-02-20T04:15:20.784Z,10.52
2023-02-20T04:18:10.848Z,7.90
2023-02-20T04:20:57.940Z,11.70
2023-02-20T04:23:50.442Z,8.93
2023-02-20T04:26:34.522Z,7.63
2023-02-20T04:29:16.922Z,11.63
2023-02-20T04:31:59.602Z,9.98
2023-02-20T04:34:47.690Z,18.27
2023-02-20T04:37:30.873Z,8.85
2023-02-20T04:40:17.276Z,10.10
2023-02-20T04:42:59.969Z,9.60
2023-02-20T04:45:42.466Z,9.07
2023-02-20T04:48:25.584Z,11.57
2023-02-20T04:51:07.860Z,12.02
2023-02-20T04:53:51.046Z,10.88
2023-02-20T04:56:33.360Z,10.40
2023-02-20T04:59:16.624Z,9.77
2023-02-20T05:02:01.148Z,6.60
2023-02-20T05:04:43.698Z,8.80
2023-02-20T05:07:25.913Z,8.82
2023-02-20T05:10:08.721Z,8.70
2023-02-20T05:12:51.501Z,10.13
2023-02-20T05:15:34.209Z,9.93
2023-02-20T05:18:26.195Z,11.27
2023-02-20T05:21:31.480Z,10.25
2023-02-20T05:24:14.087Z,7.32
2023-02-20T05:26:57.156Z,8.23
2023-02-20T05:29:40.396Z,9.73
2023-02-20T05:32:26.312Z,10.43
2023-02-20T05:35:12.396Z,11.23
2023-02-20T05:37:55.080Z,16.33
2023-02-20T05:40:38.102Z,14.77
2023-02-20T05:43:20.634Z,10.02
2023-02-20T05:46:03.008Z,9.27
2023-02-20T05:48:50.580Z,9.82
2023-02-20T05:51:34.353Z,7.95
2023-02-20T05:54:18.106Z,9.25
2023-02-20T05:57:02.119Z,13.45
2023-02-20T05:59:44.927Z,11.10
2023-02-20T06:02:27.201Z,11.52
2023-02-20T06:05:10.069Z,13.13
2023-02-20T06:07:52.629Z,21.33
2023-02-20T06:10:35.847Z,12.35
2023-02-20T06:13:18.119Z,12.35
2023-02-20T06:16:00.785Z,12.38
2023-02-20T06:18:43.190Z,11.95
2023-02-20T06:21:26.473Z,14.10
2023-02-20T06:24:09.216Z,9.65
2023-02-20T06:26:52.389Z,12.73
2023-02-20T06:29:34.844Z,15.30
2023-02-20T06:32:17.708Z,14.00
2023-02-20T06:35:15.646Z,10.20
2023-02-20T06:38:38.402Z,7.03
2023-02-20T06:41:21.399Z,18.77
2023-02-20T06:44:19.786Z,15.27
2023-02-20T06:47:09.654Z,16.33
2023-02-20T06:49:52.551Z,12.10
2023-02-20T06:52:35.311Z,16.05
2023-02-20T06:55:17.689Z,15.02
2023-02-20T06:58:00.488Z,17.75
2023-02-20T07:00:42.846Z,19.42
2023-02-20T07:03:25.709Z,13.23
2023-02-20T07:06:08.106Z,12.82
2023-02-20T07:08:51.172Z,14.35
2023-02-20T07:11:37.330Z,16.13
2023-02-20T07:14:25.104Z,10.68
2023-02-20T07:17:13.962Z,11.75
2023-02-20T07:19:57.288Z,27.00
2023-02-20T07:22:39.900Z,16.80
2023-02-20T07:25:22.812Z,16.17
2023-02-20T07:28:08.379Z,14.32
2023-02-20T07:30:51.407Z,14.73
2023-02-20T07:33:33.792Z,17.70
2023-02-20T07:36:16.984Z,13.27
2023-02-20T07:39:01.114Z,14.32
2023-02-20T07:41:43.883Z,15.18
2023-02-20T07:44:49.119Z,15.27
2023-02-20T07:48:11.728Z,12.20
2023-02-20T07:54:20.332Z,11.98
2023-02-20T07:57:09.575Z,12.48
2023-02-20T08:00:09.478Z,11.30
2023-02-20T08:03:02.547Z,18.80
2023-02-20T08:06:00.893Z,20.90
2023-02-20T08:08:48.210Z,15.63
2023-02-20T08:11:34.633Z,22.35
2023-02-20T08:14:17.371Z,19.73
2023-02-20T08:16:59.614Z,21.63
2023-02-20T08:19:42.178Z,17.80
2023-02-20T08:22:33.326Z,22.88
2023-02-20T08:25:22.756Z,11.95
2023-02-20T08:28:05.221Z,16.48
2023-02-20T08:30:47.829Z,18.08
2023-02-20T08:33:30.060Z,17.00
2023-02-20T08:36:14.562Z,16.52
2023-02-20T08:38:57.520Z,18.05
2023-02-20T08:41:47.440Z,11.63
2023-02-20T08:44:29.819Z,10.23
2023-02-20T08:47:12.364Z,16.10
2023-02-20T08:49:54.887Z,12.05
2023-02-20T08:52:37.427Z,15.48
2023-02-20T08:55:19.730Z,13.02
2023-02-20T08:58:02.327Z,14.77
2023-02-20T09:00:44.862Z,12.95
2023-02-20T09:03:27.550Z,13.85
2023-02-20T09:06:09.970Z,13.27
2023-02-20T09:08:53.070Z,10.80
2023-02-20T09:11:36.458Z,9.95
2023-02-20T09:14:19.333Z,13.43
2023-02-20T09:17:01.855Z,17.15
2023-02-20T09:19:44.386Z,12.00
2023-02-20T09:22:27.769Z,14.98
2023-02-20T09:25:12.380Z,10.90
2023-02-20T09:27:54.674Z,11.38
2023-02-20T09:30:37.274Z,18.63
2023-02-20T09:33:19.681Z,14.27
2023-02-20T09:36:02.244Z,15.57
2023-02-20T09:38:45.139Z,15.45
2023-02-20T09:41:49.399Z,31.73
2023-02-20T09:44:54.257Z,24.95
2023-02-20T09:48:03.420Z,20.42
2023-02-20T09:50:55.585Z,16.17
2023-02-20T09:53:49.520Z,18.75
2023-02-20T09:56:42.251Z,13.82
2023-02-20T09:59:29.882Z,27.90
2023-02-20T10:02:24.472Z,17.35
2023-02-20T10:05:20.670Z,90.75
2023-02-20T10:08:03.462Z,91.03
2023-02-20T10:10:49.776Z,21.80
2023-02-20T10:13:35.197Z,20.98
2023-02-20T10:16:49.467Z,17.23
2023-02-20T10:19:31.908Z,17.70
2023-02-20T10:22:30.970Z,19.60
2023-02-20T10:25:28.451Z,17.95
2023-02-20T10:28:23.512Z,21.13
2023-02-20T10:31:34.095Z,21.20
2023-02-20T10:34:32.722Z,24.33
2023-02-20T10:37:23.233Z,19.52
2023-02-20T10:40:18.979Z,23.38
2023-02-20T10:43:18.702Z,23.98
2023-02-20T10:46:13.110Z,24.08
2023-02-20T10:48:58.645Z,34.05
2023-02-20T10:51:48.979Z,25.73
2023-02-20T10:54:37.810Z,22.02
2023-02-20T10:58:04.794Z,17.40
2023-02-20T11:00:54.388Z,18.15
2023-02-20T11:03:41.559Z,33.55
2023-02-20T11:06:36.352Z,29.65
2023-02-20T11:09:20.057Z,33.38
2023-02-20T11:12:02.854Z,30.60
2023-02-20T11:14:49.395Z,27.17
2023-02-20T11:17:35.730Z,32.00
2023-02-20T11:20:38.529Z,17.90
2023-02-20T11:23:40.660Z,35.75
2023-02-20T11:26:30.549Z,63.20
2023-02-20T11:29:19.363Z,46.00
2023-02-20T11:32:29.905Z,34.35
2023-02-20T11:35:15.123Z,21.52
2023-02-20T11:38:18.839Z,19.00
2023-02-20T11:41:03.475Z,26.65
2023-02-20T11:44:00.755Z,32.53
2023-02-20T11:46:46.018Z,22.30
2023-02-20T11:49:29.426Z,23.17
2023-02-20T11:52:23.318Z,25.90
2023-02-20T11:55:20.839Z,29.00
2023-02-20T11:58:03.621Z,17.80
2023-02-20T12:00:48.896Z,26.40
2023-02-20T12:03:37.059Z,23.27
2023-02-20T12:06:41.386Z,21.80
2023-02-20T12:09:26.301Z,21.73
2023-02-20T12:12:14.174Z,16.05
2023-02-20T12:14:56.864Z,20.60
2023-02-20T12:18:07.571Z,17.40
2023-02-20T12:21:16.407Z,16.45
2023-02-20T12:24:07.411Z,23.40
2023-02-20T12:27:02.200Z,18.08
2023-02-20T12:30:02.508Z,14.82
2023-02-20T12:32:52.125Z,14.30
2023-02-20T12:35:39.668Z,14.25
2023-02-20T12:38:24.824Z,19.92
2023-02-20T12:41:19.514Z,17.95
2023-02-20T12:44:31.030Z,96.18
2023-02-20T12:47:23.930Z,86.28
2023-02-20T12:50:12.296Z,12.20
2023-02-20T12:53:12.400Z,13.77
2023-02-20T12:56:03.606Z,13.18
2023-02-20T12:58:55.727Z,15.35
2023-02-20T13:01:40.434Z,9.57
2023-02-20T13:04:32.819Z,13.98
2023-02-20T13:07:24.071Z,12.00
2023-02-20T13:10:26.262Z,13.02
2023-02-20T13:13:11.105Z,10.30
2023-02-20T13:16:04.854Z,10.32
2023-02-20T13:18:48.931Z,14.55
2023-02-20T13:21:33.019Z,12.35
2023-02-20T13:24:21.673Z,10.18
2023-02-20T13:27:27.318Z,12.48
2023-02-20T13:30:21.214Z,12.35
2023-02-20T13:33:27.888Z,11.82
2023-02-20T13:36:43.953Z,12.20
2023-02-20T13:39:28.284Z,9.32
2023-02-20T13:42:31.184Z,9.60
2023-02-20T13:45:37.246Z,10.70
2023-02-20T13:48:39.029Z,11.10
2023-02-20T13:51:22.315Z,11.30
2023-02-20T13:54:10.834Z,12.63
2023-02-20T13:57:17.800Z,15.68
2023-02-20T14:00:02.090Z,16.80
2023-02-20T14:02:47.688Z,13.88
2023-02-20T14:05:32.658Z,16.08
2023-02-20T14:08:19.335Z,11.30
2023-02-20T14:11:10.274Z,12.23
2023-02-20T14:13:55.231Z,11.95
2023-02-20T14:16:41.903Z,12.65
2023-02-20T14:19:28.128Z,11.40
2023-02-20T14:22:29.268Z,12.27
2023-02-20T14:25:11.845Z,13.82
2023-02-20T14:28:06.500Z,17.83
2023-02-20T14:31:14.649Z,17.00
2023-02-20T14:33:58.470Z,16.35
2023-02-20T14:36:49.963Z,12.00
2023-02-20T14:39:51.075Z,14.93
2023-02-20T14:42:35.013Z,14.73
2023-02-20T14:45:25.678Z,11.75
2023-02-20T14:48:26.257Z,11.15
2023-02-20T14:51:16.689Z,6.45
2023-02-20T14:54:02.311Z,7.35
2023-02-20T14:56:49.285Z,8.20
2023-02-20T14:59:37.140Z,9.32
2023-02-20T15:02:39.560Z,6.82
2023-02-20T15:05:34.682Z,8.93
2023-02-20T15:08:21.086Z,9.60
2023-02-20T15:11:11.081Z,9.32
2023-02-20T15:13:54.129Z,11.90
2023-02-20T15:16:40.467Z,8.70
2023-02-20T15:22:33.833Z,9.55
2023-02-20T15:25:22.274Z,7.97
2023-02-20T15:28:27.388Z,9.45
2023-02-20T15:31:10.014Z,8.80
2023-02-20T15:33:54.318Z,10.85
2023-02-20T15:36:37.190Z,7.72
2023-02-20T15:39:20.619Z,10.27
2023-02-20T15:42:03.252Z,9.00
2023-02-20T15:44:45.995Z,11.05
2023-02-20T15:47:28.366Z,11.63
2023-02-20T15:50:11.292Z,10.02
2023-02-20T15:52:54.901Z,9.30
2023-02-20T15:55:37.492Z,7.40
2023-02-20T15:58:35.347Z,6.75
2023-02-20T16:01:18.308Z,9.10
2023-02-20T16:04:01.191Z,10.63
2023-02-20T16:06:45.513Z,6.75
2023-02-20T16:09:28.119Z,9.55
2023-02-20T16:12:23.555Z,9.27
2023-02-20T16:15:07.509Z,8.55
2023-02-20T16:17:50.420Z,9.07
2023-02-20T16:20:32.723Z,7.85
2023-02-20T16:23:17.716Z,7.20
2023-02-20T16:26:01.319Z,7.18
2023-02-20T16:28:53.059Z,6.97
2023-02-20T16:31:54.163Z,13.02
2023-02-20T16:34:38.333Z,13.82
2023-02-20T16:37:21.328Z,9.20
2023-02-20T16:40:04.297Z,14.40
2023-02-20T16:42:46.883Z,18.52
2023-02-20T16:45:30.002Z,7.55
2023-02-20T16:48:20.616Z,8.50
2023-02-20T16:51:06.373Z,6.85
2023-02-20T16:53:48.881Z,7.80
2023-02-20T16:56:31.817Z,8.88
2023-02-20T16:59:14.249Z,8.50
2023-02-20T17:01:57.059Z,8.20
2023-02-20T17:04:39.374Z,15.23
2023-02-20T17:07:22.477Z,17.00
2023-02-20T17:10:06.630Z,23.50
2023-02-20T17:12:49.786Z,12.25
2023-02-20T17:15:32.635Z,10.70
2023-02-20T17:18:15.725Z,10.45
2023-02-20T17:20:59.038Z,9.80
2023-02-20T17:23:41.647Z,25.67
2023-02-20T17:26:26.734Z,18.13
2023-02-20T17:29:10.067Z,21.65
2023-02-20T17:31:52.689Z,10.95
2023-02-20T17:34:35.602Z,10.20
2023-02-20T17:37:18.002Z,8.60
2023-02-20T17:40:01.663Z,13.50
2023-02-20T17:42:44.003Z,6.90
2023-02-20T17:45:27.085Z,9.57
2023-02-20T17:48:09.579Z,9.25
2023-02-20T17:50:52.081Z,20.40
2023-02-20T17:53:34.865Z,11.43
2023-02-20T17:56:18.377Z,12.57
2023-02-20T17:59:01.125Z,12.48
2023-02-20T18:01:43.946Z,13.07
2023-02-20T18:04:26.319Z,12.57
2023-02-20T18:07:10.591Z,10.82
2023-02-20T18:09:53.050Z,18.95
2023-02-20T18:12:35.800Z,14.10
2023-02-20T18:15:19.671Z,13.07
2023-02-20T18:18:03.240Z,10.43
2023-02-20T18:20:45.611Z,8.57
2023-02-20T18:23:28.164Z,10.68
2023-02-20T18:26:10.681Z,7.85
2023-02-20T18:28:53.376Z,7.22
2023-02-20T18:31:36.099Z,10.93
2023-02-20T18:34:21.551Z,13.27
2023-02-20T18:37:03.992Z,7.53
2023-02-20T18:39:46.860Z,12.57
2023-02-20T18:42:29.368Z,10.43
2023-02-20T18:45:12.787Z,10.93
2023-02-20T18:47:55.376Z,15.27
2023-02-20T18:50:38.352Z,9.18
2023-02-20T18:53:21.509Z,9.32
2023-02-20T18:56:04.258Z,7.13
2023-02-20T18:58:47.696Z,7.47
2023-02-20T19:01:31.140Z,7.53
2023-02-20T19:04:14.141Z,7.55
2023-02-20T19:06:58.905Z,10.70
2023-02-20T19:09:41.181Z,9.45
2023-02-20T19:12:23.692Z,10.02
2023-02-20T19:15:09.186Z,9.05
2023-02-20T19:17:52.652Z,9.25
2023-02-20T19:20:35.701Z,11.75
2023-02-20T19:23:18.929Z,14.02
2023-02-20T19:26:01.583Z,20.58
2023-02-20T19:28:44.638Z,9.23
2023-02-20T19:31:29.936Z,17.50
2023-02-20T19:34:14.554Z,13.35
2023-02-20T19:36:57.848Z,11.35
2023-02-20T19:39:41.321Z,9.27
2023-02-20T19:42:28.340Z,13.82
2023-02-20T19:45:11.593Z,14.93
2023-02-20T19:47:53.912Z,10.65
2023-02-20T19:50:37.559Z,10.18
2023-02-20T19:53:19.958Z,15.50
2023-02-20T19:56:03.029Z,11.93
2023-02-20T19:58:45.574Z,10.57
2023-02-20T20:01:28.400Z,11.70
2023-02-20T20:04:10.753Z,13.65
2023-02-20T20:06:54.042Z,10.50
2023-02-20T20:09:37.841Z,14.68
2023-02-20T20:12:39.168Z,12.20
2023-02-20T20:15:25.750Z,17.35
2023-02-20T20:18:08.956Z,12.23
2023-02-20T20:20:51.923Z,14.52
2023-02-20T20:23:35.447Z,14.23
2023-02-20T20:26:19.281Z,12.77
2023-02-20T20:29:02.996Z,14.65
2023-02-20T20:31:48.300Z,11.77
2023-02-20T20:34:31.256Z,12.57
2023-02-20T20:37:13.656Z,11.88
2023-02-20T20:39:58.939Z,13.18
2023-02-20T20:42:41.412Z,14.85
2023-02-20T20:45:24.366Z,10.57
2023-02-20T20:48:07.064Z,11.10
2023-02-20T20:50:52.029Z,11.07
2023-02-20T20:53:34.936Z,13.90
2023-02-20T20:56:18.943Z,12.80
2023-02-20T20:59:01.648Z,11.35
2023-02-20T21:01:45.553Z,12.45
2023-02-20T21:04:30.287Z,16.45
2023-02-20T21:07:13.551Z,14.85
2023-02-20T21:09:55.786Z,13.13
2023-02-20T21:12:39.101Z,12.10
2023-02-20T21:15:23.260Z,11.60
2023-02-20T21:18:06.382Z,11.63
2023-02-20T21:20:49.052Z,10.73
2023-02-20T21:23:32.012Z,12.00
2023-02-20T21:26:14.448Z,13.57
2023-02-20T21:28:56.987Z,10.80
2023-02-20T21:31:46.100Z,11.10
2023-02-20T21:34:28.811Z,11.02
2023-02-20T21:37:11.125Z,15.23
2023-02-20T21:39:54.378Z,10.95
2023-02-20T21:42:55.576Z,10.75
2023-02-20T21:45:38.099Z,11.85
2023-02-20T21:48:20.308Z,11.80
2023-02-20T21:51:03.401Z,10.80
2023-02-20T21:53:45.997Z,11.45
2023-02-20T21:56:28.516Z,9.70
2023-02-20T21:59:11.485Z,12.48
2023-02-20T22:01:54.014Z,12.40
2023-02-20T22:04:36.391Z,10.48
2023-02-20T22:07:37.620Z,9.60
2023-02-20T22:10:38.710Z,9.32
2023-02-20T22:13:39.775Z,8.55
2023-02-20T22:16:40.826Z,10.15
2023-02-20T22:19:41.878Z,9.60
2023-02-20T22:22:42.800Z,11.02
2023-02-20T22:25:44.849Z,8.00
2023-02-20T22:28:45.637Z,8.68
2023-02-20T22:31:46.809Z,9.07
2023-02-20T22:34:47.554Z,10.02
2023-02-20T22:37:48.543Z,8.15
2023-02-20T22:40:49.202Z,6.88
2023-02-20T22:43:50.462Z,8.43
2023-02-20T22:46:51.426Z,6.90
2023-02-20T22:49:55.352Z,7.05
2023-02-20T22:52:56.566Z,7.68
2023-02-20T22:55:57.633Z,7.93
2023-02-20T22:58:58.749Z,7.40
2023-02-20T23:02:02.041Z,8.07
2023-02-20T23:05:03.840Z,8.75
2023-02-20T23:08:05.078Z,7.85
2023-02-20T23:11:05.913Z,7.80
2023-02-20T23:14:07.678Z,6.90
2023-02-20T23:17:08.668Z,7.65
2023-02-20T23:20:09.659Z,7.78
2023-02-20T23:23:11.949Z,7.85
2023-02-20T23:26:13.245Z,7.93
2023-02-20T23:29:14.034Z,6.53
2023-02-20T23:32:14.972Z,6.85
2023-02-20T23:35:15.874Z,7.70
2023-02-20T23:38:17.155Z,6.13
2023-02-20T23:41:18.089Z,6.50
2023-02-20T23:44:19.413Z,6.60
2023-02-20T23:47:20.720Z,6.35
2023-02-20T23:50:21.938Z,6.72
2023-02-20T23:53:22.719Z,7.25
2023-02-20T23:56:25.104Z,6.65
2023-02-20T23:59:25.999Z,6.25
